SILO ALERT LOG
| Silo ID | Alert Type | Alert Message | Silo Type | Points | Depth (mm) | Strength | Temperature (°C) | Humidity (%) | Height (mm) | Volume (㎥) | Weight (t) | Flag | Time |
|---|---|---|---|---|---|---|---|---|---|---|---|---|---|
| DJDJD04 | Humidity | 습도센서 측정값이 80% 초과 | 평 | 67 | 2812 | 5808 | -3275.8 | 99.9 | 4687 | 567.957 | 359.063 | 0 | 2026-05-02 21:25:20.000 |
| DJDJD04 | Temperature | 온도센서 상태 이상 | 평 | 67 | 2812 | 5808 | -3275.8 | 99.9 | 4687 | 567.957 | 359.063 | 0 | 2026-05-02 21:25:20.000 |
| DJDJD04 | Humidity | 습도센서 측정값이 80% 초과 | 평 | 66 | 2843 | 5820 | -3275.8 | 99.9 | 4656 | 564.185 | 356.678 | 0 | 2026-05-02 20:25:17.000 |
| DJDJD04 | Temperature | 온도센서 상태 이상 | 평 | 66 | 2843 | 5820 | -3275.8 | 99.9 | 4656 | 564.185 | 356.678 | 0 | 2026-05-02 20:25:17.000 |
| DJDJD04 | Humidity | 습도센서 측정값이 80% 초과 | 평 | 67 | 3158 | 5806 | -3275.8 | 99.9 | 4341 | 525.983 | 332.526 | 0 | 2026-05-02 19:25:03.000 |
| DJDJD04 | Temperature | 온도센서 상태 이상 | 평 | 67 | 3158 | 5806 | -3275.8 | 99.9 | 4341 | 525.983 | 332.526 | 0 | 2026-05-02 19:25:03.000 |
| DJHNR11 | Humidity | 습도센서 측정값이 80% 초과 | 호퍼 | 60 | 3640 | 1168 | 12.3 | 80.4 | 6859 | 111.995 | 70.803 | 0 | 2026-05-02 19:23:43.000 |
| DJDJD04 | Temperature | 온도센서 상태 이상 | 평 | 67 | 3112 | 5813 | -3275.8 | 99.9 | 4387 | 531.618 | 336.089 | 0 | 2026-05-02 18:25:08.000 |
| DJDJD04 | Humidity | 습도센서 측정값이 80% 초과 | 평 | 67 | 3112 | 5813 | -3275.8 | 99.9 | 4387 | 531.618 | 336.089 | 0 | 2026-05-02 18:25:08.000 |
| DJSSD03 | Humidity | 습도센서 측정값이 80% 초과 | 평 | 84 | 3140 | 2842 | 12.9 | 80.9 | 5260 | 732.086 | 462.825 | 0 | 2026-05-02 18:23:48.000 |
| DJDJD04 | Humidity | 습도센서 측정값이 80% 초과 | 평 | 67 | 3055 | 5840 | -3275.8 | 99.9 | 4444 | 538.492 | 340.435 | 0 | 2026-05-02 17:25:11.000 |
| DJDJD04 | Temperature | 온도센서 상태 이상 | 평 | 67 | 3055 | 5840 | -3275.8 | 99.9 | 4444 | 538.492 | 340.435 | 0 | 2026-05-02 17:25:11.000 |
| DJSSD03 | Humidity | 습도센서 측정값이 80% 초과 | 평 | 84 | 3120 | 2851 | 12.8 | 81.9 | 5279 | 734.87 | 464.585 | 0 | 2026-05-02 17:23:47.000 |
| DJDJD04 | Humidity | 습도센서 측정값이 80% 초과 | 평 | 67 | 3044 | 5896 | -3275.8 | 99.9 | 4455 | 539.789 | 341.255 | 0 | 2026-05-02 16:25:12.000 |
| DJDJD04 | Temperature | 온도센서 상태 이상 | 평 | 67 | 3044 | 5896 | -3275.8 | 99.9 | 4455 | 539.789 | 341.255 | 0 | 2026-05-02 16:25:12.000 |
| DJHNR11 | Humidity | 습도센서 측정값이 80% 초과 | 호퍼 | 60 | 3570 | 1159 | 12.3 | 80.4 | 6930 | 113.505 | 71.758 | 0 | 2026-05-02 16:23:43.000 |
| DJDJD04 | Humidity | 습도센서 측정값이 80% 초과 | 평 | 66 | 3036 | 5811 | -3275.8 | 99.9 | 4463 | 540.816 | 341.904 | 0 | 2026-05-02 15:25:08.000 |
| DJDJD04 | Temperature | 온도센서 상태 이상 | 평 | 66 | 3036 | 5811 | -3275.8 | 99.9 | 4463 | 540.816 | 341.904 | 0 | 2026-05-02 15:25:08.000 |
| DJSSD03 | Humidity | 습도센서 측정값이 80% 초과 | 평 | 76 | 3150 | 2839 | 12.9 | 82 | 5250 | 730.694 | 461.945 | 0 | 2026-05-02 15:23:46.000 |
| DJDJD04 | Humidity | 습도센서 측정값이 80% 초과 | 평 | 67 | 2808 | 5822 | -3275.8 | 99.9 | 4691 | 568.332 | 359.3 | 0 | 2026-05-02 14:25:17.000 |
[첫 페이지] [1] [2] [3] 4 [5] [6] [7] [8] [마지막 페이지]